createdAt,value
2022-11-16T00:00:45.898Z,98796.44
2022-11-16T00:01:48.746Z,98793.91
2022-11-16T00:02:51.859Z,98791.16
2022-11-16T00:03:56.129Z,98799.69
2022-11-16T00:04:57.876Z,98795.28
2022-11-16T00:06:01.664Z,98798.28
2022-11-16T00:07:04.737Z,98800.41
2022-11-16T00:08:06.472Z,98795.44
2022-11-16T00:09:28.623Z,98792.13
2022-11-16T00:10:31.826Z,98792.38
2022-11-16T00:11:34.641Z,98794.03
2022-11-16T00:12:36.332Z,98791.28
2022-11-16T00:13:40.302Z,98792.13
2022-11-16T00:14:42.962Z,98794.59
2022-11-16T00:15:54.173Z,98793.75
2022-11-16T00:16:59.269Z,98789.09
2022-11-16T00:18:01.055Z,98787.19
2022-11-16T00:19:06.420Z,98789.69
2022-11-16T00:20:09.414Z,98787.78
2022-11-16T00:21:12.520Z,98793.84
2022-11-16T00:22:14.206Z,98788.34
2022-11-16T00:23:16.906Z,98783.66
2022-11-16T00:24:20.014Z,98790.00
2022-11-16T00:25:22.660Z,98784.25
2022-11-16T00:26:25.950Z,98788.09
2022-11-16T00:27:28.582Z,98784.25
2022-11-16T00:28:30.683Z,98787.03
2022-11-16T00:29:33.724Z,98780.69
2022-11-16T00:30:35.450Z,98785.09
2022-11-16T00:31:38.134Z,98780.44
2022-11-16T00:32:39.818Z,98782.06
2022-11-16T00:33:42.566Z,98782.34
2022-11-16T00:34:44.292Z,98785.09
2022-11-16T00:35:47.010Z,98788.94
2022-11-16T00:36:48.932Z,98785.34
2022-11-16T00:37:52.788Z,98780.91
2022-11-16T00:38:54.467Z,98785.59
2022-11-16T00:39:57.183Z,98777.59
2022-11-16T00:40:59.010Z,98779.75
2022-11-16T00:42:06.034Z,98779.16
2022-11-16T00:43:07.674Z,98778.38
2022-11-16T00:44:10.397Z,98781.13
2022-11-16T00:45:12.146Z,98783.03
2022-11-16T00:46:14.994Z,98783.88
2022-11-16T00:47:16.654Z,98778.38
2022-11-16T00:48:19.339Z,98781.91
2022-11-16T00:49:21.001Z,98786.63
2022-11-16T00:50:23.687Z,98786.84
2022-11-16T00:51:25.524Z,98790.94
2022-11-16T00:52:28.249Z,98779.94
2022-11-16T00:53:32.893Z,98783.50
2022-11-16T00:54:35.765Z,98785.44
2022-11-16T00:55:37.698Z,98783.50
2022-11-16T00:56:40.791Z,98787.94
2022-11-16T00:57:43.819Z,98786.25
2022-11-16T00:58:46.575Z,98781.84
2022-11-16T00:59:48.236Z,98783.50
2022-11-16T01:00:51.020Z,98788.78
2022-11-16T01:01:52.829Z,98787.69
2022-11-16T01:02:55.548Z,98783.88
2022-11-16T01:03:57.215Z,98782.75
2022-11-16T01:04:59.883Z,98784.44
2022-11-16T01:06:02.322Z,98784.19
2022-11-16T01:07:05.096Z,98776.78
2022-11-16T01:08:07.174Z,98783.91
2022-11-16T01:09:09.835Z,98783.91
2022-11-16T01:10:17.441Z,98783.66
2022-11-16T01:11:38.168Z,98784.50
2022-11-16T01:12:41.188Z,98780.91
2022-11-16T01:13:44.391Z,98783.44
2022-11-16T01:14:47.341Z,98782.59
2022-11-16T01:15:50.383Z,98779.84
2022-11-16T01:16:52.056Z,98782.59
2022-11-16T01:17:56.063Z,98778.16
2022-11-16T01:18:57.951Z,98782.84
2022-11-16T01:20:00.611Z,98779.53
2022-11-16T01:21:02.407Z,98775.94
2022-11-16T01:22:05.250Z,98772.59
2022-11-16T01:23:07.018Z,98778.38
2022-11-16T01:24:09.825Z,98770.91
2022-11-16T01:25:12.704Z,98772.88
2022-11-16T01:26:15.548Z,98772.03
2022-11-16T01:27:17.319Z,98765.69
2022-11-16T01:28:20.026Z,98760.19
2022-11-16T01:29:23.202Z,98767.59
2022-11-16T01:30:25.923Z,98761.50
2022-11-16T01:31:27.675Z,98766.16
2022-11-16T01:32:30.472Z,98764.53
2022-11-16T01:33:32.156Z,98760.09
2022-11-16T01:34:35.044Z,98758.41
2022-11-16T01:35:36.727Z,98760.31
2022-11-16T01:36:39.441Z,98749.31
2022-11-16T01:37:41.252Z,98750.97
2022-11-16T01:38:45.509Z,98750.78
2022-11-16T01:39:48.863Z,98750.78
2022-11-16T01:40:51.509Z,98744.16
2022-11-16T01:41:53.305Z,98749.41
2022-11-16T01:42:56.042Z,98753.00
2022-11-16T01:43:59.386Z,98747.50
2022-11-16T01:45:07.948Z,98750.50
2022-11-16T01:46:10.021Z,98752.16
2022-11-16T01:47:15.188Z,98750.78
2022-11-16T01:48:21.987Z,98746.91
2022-11-16T01:49:26.147Z,98743.59
2022-11-16T01:50:29.031Z,98741.88
2022-11-16T01:51:31.588Z,98741.88
2022-11-16T01:52:36.642Z,98749.31
2022-11-16T01:53:38.611Z,98742.13
2022-11-16T01:54:44.419Z,98742.41
2022-11-16T01:55:47.221Z,98747.91
2022-11-16T01:56:50.740Z,98737.97
2022-11-16T01:57:52.543Z,98733.56
2022-11-16T01:58:55.302Z,98736.31
2022-11-16T01:59:59.596Z,98738.22
2022-11-16T02:01:03.780Z,98732.72
2022-11-16T02:02:05.588Z,98735.72
2022-11-16T02:03:08.236Z,98735.72
2022-11-16T02:04:10.523Z,98736.56
2022-11-16T02:05:15.032Z,98731.88
2022-11-16T02:06:32.800Z,98735.72
2022-11-16T02:08:00.825Z,98727.72
2022-11-16T02:09:32.034Z,98734.31
2022-11-16T02:10:49.192Z,98730.16
2022-11-16T02:12:01.796Z,98729.56
2022-11-16T02:13:13.919Z,98738.06
2022-11-16T02:14:26.649Z,98724.59
2022-11-16T02:15:33.835Z,98728.91
2022-11-16T02:16:41.493Z,98735.50
2022-11-16T02:17:52.283Z,98736.59
2022-11-16T02:18:59.498Z,98735.97
2022-11-16T02:20:31.445Z,98735.66
2022-11-16T02:21:38.960Z,98726.00
2022-11-16T02:22:53.607Z,98728.75
2022-11-16T02:24:34.799Z,98727.31
2022-11-16T02:25:40.508Z,98727.31
2022-11-16T02:27:14.378Z,98724.56
2022-11-16T02:28:24.602Z,98727.31
2022-11-16T02:29:31.334Z,98727.56
2022-11-16T02:30:33.354Z,98727.56
2022-11-16T02:31:38.538Z,98721.22
2022-11-16T02:32:44.374Z,98726.72
2022-11-16T02:33:48.205Z,98730.06
2022-11-16T02:34:52.964Z,98718.25
2022-11-16T02:35:58.063Z,98719.69
2022-11-16T02:37:02.040Z,98717.75
2022-11-16T02:38:09.892Z,98716.66
2022-11-16T02:39:15.133Z,98719.41
2022-11-16T02:40:18.464Z,98711.16
2022-11-16T02:41:21.991Z,98712.00
2022-11-16T02:42:29.005Z,98717.25
2022-11-16T02:43:34.409Z,98712.59
2022-11-16T02:44:41.386Z,98714.50
2022-11-16T02:45:47.985Z,98706.25
2022-11-16T02:46:56.607Z,98712.59
2022-11-16T02:48:03.239Z,98712.59
2022-11-16T02:49:08.915Z,98707.09
2022-11-16T02:50:13.784Z,98707.91
2022-11-16T02:51:17.170Z,98709.84
2022-11-16T02:52:19.097Z,98713.66
2022-11-16T02:53:22.726Z,98709.25
2022-11-16T02:54:25.004Z,98719.41
2022-11-16T02:55:29.009Z,98715.81
2022-11-16T02:56:30.838Z,98720.50
2022-11-16T02:57:43.859Z,98716.09
2022-11-16T02:58:45.688Z,98710.22
2022-11-16T02:59:51.749Z,98714.09
2022-11-16T03:00:58.870Z,98714.34
2022-11-16T03:02:05.505Z,98721.19
2022-11-16T03:03:12.864Z,98715.09
2022-11-16T03:04:19.359Z,98699.09
2022-11-16T03:05:32.043Z,98712.25
2022-11-16T03:06:36.720Z,98716.06
2022-11-16T03:07:42.839Z,98717.66
2022-11-16T03:08:48.895Z,98712.66
2022-11-16T03:09:51.600Z,98714.25
2022-11-16T03:11:15.272Z,98717.81
2022-11-16T03:12:20.442Z,98718.56
2022-11-16T03:13:24.128Z,98720.13
2022-11-16T03:14:30.772Z,98716.00
2022-11-16T03:15:36.424Z,98709.31
2022-11-16T03:16:42.370Z,98708.72
2022-11-16T03:17:45.135Z,98720.22
2022-11-16T03:18:48.873Z,98713.53
2022-11-16T03:19:56.768Z,98714.63
2022-11-16T03:21:06.044Z,98710.13
2022-11-16T03:22:12.232Z,98707.19
2022-11-16T03:23:15.140Z,98705.03
2022-11-16T03:24:17.963Z,98707.78
2022-11-16T03:25:21.311Z,98706.34
2022-11-16T03:26:29.236Z,98704.44
2022-11-16T03:27:37.604Z,98703.88
2022-11-16T03:28:46.446Z,98697.28
2022-11-16T03:29:56.055Z,98692.50
2022-11-16T03:31:01.865Z,98696.94
2022-11-16T03:32:09.407Z,98693.81
2022-11-16T03:33:17.038Z,98685.81
2022-11-16T03:34:20.750Z,98685.81
2022-11-16T03:35:26.148Z,98687.72
2022-11-16T03:36:29.971Z,98689.06
2022-11-16T03:37:33.263Z,98681.69
2022-11-16T03:38:37.121Z,98678.81
2022-11-16T03:39:40.455Z,98678.81
2022-11-16T03:40:44.258Z,98678.81
2022-11-16T03:41:48.251Z,98679.66
2022-11-16T03:42:50.332Z,98673.34
2022-11-16T03:43:53.548Z,98677.16
2022-11-16T03:44:55.668Z,98676.91
2022-11-16T03:46:00.173Z,98672.75
2022-11-16T03:47:01.934Z,98677.16
2022-11-16T03:48:04.927Z,98681.31
2022-11-16T03:49:06.584Z,98677.50
2022-11-16T03:50:10.579Z,98678.31
2022-11-16T03:51:12.608Z,98693.50
2022-11-16T03:52:15.819Z,98689.91
2022-11-16T03:53:17.586Z,98692.66
2022-11-16T03:54:20.589Z,98687.72
2022-11-16T03:55:22.346Z,98695.75
2022-11-16T03:56:25.040Z,98696.81
2022-11-16T03:57:26.753Z,98701.13
2022-11-16T03:58:29.463Z,98690.75
2022-11-16T03:59:31.115Z,98701.13
2022-11-16T04:00:33.805Z,98697.03
2022-11-16T04:01:41.788Z,98705.28
2022-11-16T04:02:47.162Z,98714.53
2022-11-16T04:03:48.871Z,98709.25
2022-11-16T04:05:09.539Z,98712.63
2022-11-16T04:06:29.071Z,98712.84
2022-11-16T04:07:50.454Z,98711.78
2022-11-16T04:09:10.743Z,98708.09
2022-11-16T04:10:31.479Z,98714.66
2022-11-16T04:11:51.768Z,98701.78
2022-11-16T04:13:12.154Z,98709.66
2022-11-16T04:14:33.506Z,98704.91
2022-11-16T04:15:53.756Z,98704.31
2022-11-16T04:17:15.267Z,98712.44
2022-11-16T04:18:40.978Z,98712.22
2022-11-16T04:20:01.080Z,98714.13
2022-11-16T04:21:21.446Z,98711.38
2022-11-16T04:22:44.791Z,98714.94
2022-11-16T04:24:05.698Z,98708.19
2022-11-16T04:25:11.227Z,98711.16
2022-11-16T04:26:12.894Z,98705.91
2022-11-16T04:27:34.304Z,98705.78
2022-11-16T04:28:37.680Z,98704.97
2022-11-16T04:29:40.361Z,98698.16
2022-11-16T04:31:03.190Z,98695.19
2022-11-16T04:32:25.406Z,98697.34
2022-11-16T04:33:45.776Z,98695.41
2022-11-16T04:35:06.247Z,98697.09
2022-11-16T04:36:27.139Z,98698.41
2022-11-16T04:37:47.429Z,98698.91
2022-11-16T04:38:50.109Z,98704.88
2022-11-16T04:39:51.816Z,98705.47
2022-11-16T04:40:54.447Z,98709.75
2022-11-16T04:42:14.348Z,98711.19
2022-11-16T04:43:16.103Z,98721.44
2022-11-16T04:44:18.946Z,98722.25
2022-11-16T04:45:39.238Z,98724.78
2022-11-16T04:46:59.578Z,98716.44
2022-11-16T04:48:03.294Z,98713.13
2022-11-16T04:49:05.985Z,98707.16
2022-11-16T04:50:08.206Z,98705.59
2022-11-16T04:51:11.023Z,98715.47
2022-11-16T04:52:12.753Z,98727.63
2022-11-16T04:53:15.847Z,98727.41
2022-11-16T04:54:17.551Z,98731.81
2022-11-16T04:55:20.279Z,98731.59
2022-11-16T04:56:22.032Z,98730.38
2022-11-16T04:57:24.774Z,98734.34
2022-11-16T04:58:26.468Z,98747.00
2022-11-16T04:59:29.163Z,98735.06
2022-11-16T05:00:31.179Z,98740.91
2022-11-16T05:01:51.656Z,98736.38
2022-11-16T05:02:59.731Z,98733.88
2022-11-16T05:04:04.561Z,98727.69
2022-11-16T05:05:08.126Z,98729.59
2022-11-16T05:06:10.808Z,98734.97
2022-11-16T05:07:14.683Z,98725.66
2022-11-16T05:08:17.468Z,98735.91
2022-11-16T05:09:19.199Z,98723.88
2022-11-16T05:10:21.950Z,98725.50
2022-11-16T05:11:23.862Z,98731.25
2022-11-16T05:12:27.808Z,98731.25
2022-11-16T05:13:30.535Z,98733.75
2022-11-16T05:14:32.220Z,98732.69
2022-11-16T05:15:34.851Z,98736.75
2022-11-16T05:16:36.660Z,98731.50
2022-11-16T05:17:39.396Z,98741.63
2022-11-16T05:18:41.082Z,98741.41
2022-11-16T05:20:02.964Z,98736.75
2022-11-16T05:21:04.945Z,98732.56
2022-11-16T05:22:07.626Z,98727.91
2022-11-16T05:23:29.705Z,98733.16
2022-11-16T05:24:34.160Z,98735.06
2022-11-16T05:25:37.265Z,98729.34
2022-11-16T05:26:38.958Z,98728.03
2022-11-16T05:27:41.608Z,98734.97
2022-11-16T05:28:43.334Z,98740.78
2022-11-16T05:29:46.570Z,98728.13
2022-11-16T05:30:48.256Z,98738.88
2022-11-16T05:31:50.944Z,98730.66
2022-11-16T05:32:52.711Z,98732.78
2022-11-16T05:33:55.374Z,98736.38
2022-11-16T05:34:58.423Z,98741.63
2022-11-16T05:36:01.087Z,98736.13
2022-11-16T05:37:02.809Z,98734.47
2022-11-16T05:38:06.119Z,98736.38
2022-11-16T05:39:07.916Z,98731.94
2022-11-16T05:40:11.911Z,98727.53
2022-11-16T05:41:13.623Z,98742.09
2022-11-16T05:42:17.110Z,98734.34
2022-11-16T05:43:18.909Z,98732.22
2022-11-16T05:44:21.558Z,98729.47
2022-11-16T05:45:23.308Z,98732.78
2022-11-16T05:46:26.587Z,98729.94
2022-11-16T05:47:29.296Z,98735.41
2022-11-16T05:48:31.057Z,98739.59
2022-11-16T05:49:33.952Z,98735.53
2022-11-16T05:50:42.345Z,98738.28
2022-11-16T05:51:46.904Z,98739.94
2022-11-16T05:52:48.575Z,98746.03
2022-11-16T05:53:51.259Z,98735.88
2022-11-16T05:54:52.898Z,98739.34
2022-11-16T05:55:55.625Z,98741.84
2022-11-16T05:56:57.648Z,98744.09
2022-11-16T05:58:00.365Z,98744.09
2022-11-16T05:59:02.026Z,98750.69
2022-11-16T06:00:05.827Z,98741.63
2022-11-16T06:01:07.910Z,98752.00
2022-11-16T06:02:10.663Z,98753.66
2022-11-16T06:03:12.387Z,98749.47
2022-11-16T06:04:15.348Z,98757.47
2022-11-16T06:05:17.262Z,98754.72
2022-11-16T06:06:21.385Z,98750.94
2022-11-16T06:07:23.137Z,98752.81
2022-11-16T06:08:25.997Z,98750.31
2022-11-16T06:09:27.683Z,98749.25
2022-11-16T06:10:30.393Z,98750.56
2022-11-16T06:11:35.790Z,98752.00
2022-11-16T06:12:38.905Z,98761.91
2022-11-16T06:13:40.601Z,98755.81
2022-11-16T06:14:43.246Z,98767.03
2022-11-16T06:15:51.552Z,98766.09
2022-11-16T06:16:54.383Z,98762.84
2022-11-16T06:17:56.195Z,98763.19
2022-11-16T06:18:58.850Z,98761.28
2022-11-16T06:20:00.522Z,98762.97
2022-11-16T06:21:03.179Z,98750.94
2022-11-16T06:22:06.508Z,98761.41
2022-11-16T06:23:09.127Z,98749.13
2022-11-16T06:24:11.904Z,98748.53
2022-11-16T06:25:13.534Z,98753.78
2022-11-16T06:26:16.262Z,98748.88
2022-11-16T06:27:19.146Z,98758.66
2022-11-16T06:28:20.896Z,98755.69
2022-11-16T06:29:23.585Z,98757.09
2022-11-16T06:30:25.581Z,98764.53
2022-11-16T06:31:28.272Z,98762.59
2022-11-16T06:32:30.017Z,98757.59
2022-11-16T06:33:33.881Z,98753.56
2022-11-16T06:34:35.722Z,98758.78
2022-11-16T06:35:38.374Z,98770.47
2022-11-16T06:36:40.058Z,98764.53
2022-11-16T06:37:44.097Z,98773.34
2022-11-16T06:38:45.779Z,98768.06
2022-11-16T06:39:48.489Z,98768.69
2022-11-16T06:40:51.224Z,98770.34
2022-11-16T06:41:53.985Z,98777.16
2022-11-16T06:42:57.147Z,98777.16
2022-11-16T06:44:00.010Z,98768.69
2022-11-16T06:45:01.730Z,98772.25
2022-11-16T06:46:04.441Z,98777.53
2022-11-16T06:47:06.166Z,98774.16
2022-11-16T06:48:09.197Z,98776.91
2022-11-16T06:49:12.063Z,98773.56
2022-11-16T06:50:13.803Z,98775.72
2022-11-16T06:51:16.490Z,98773.81
2022-11-16T06:52:18.218Z,98772.38
2022-11-16T06:53:28.752Z,98773.22
2022-11-16T06:54:31.763Z,98773.47
2022-11-16T06:55:33.484Z,98785.25
2022-11-16T06:56:36.243Z,98770.13
2022-11-16T06:57:37.995Z,98778.13
2022-11-16T06:58:42.820Z,98773.72
2022-11-16T06:59:44.701Z,98783.00
2022-11-16T07:00:47.388Z,98782.78
2022-11-16T07:01:49.230Z,98783.84
2022-11-16T07:02:51.934Z,98783.25
2022-11-16T07:03:53.658Z,98787.66
2022-11-16T07:05:02.156Z,98784.09
2022-11-16T07:06:06.951Z,98789.56
2022-11-16T07:07:09.675Z,98783.63
2022-11-16T07:08:11.490Z,98782.78
2022-11-16T07:09:16.288Z,98782.28
2022-11-16T07:10:18.174Z,98785.88
2022-11-16T07:11:21.224Z,98786.47
2022-11-16T07:12:22.905Z,98793.03
2022-11-16T07:13:25.549Z,98795.50
2022-11-16T07:14:28.178Z,98790.88
2022-11-16T07:15:29.955Z,98798.38
2022-11-16T07:16:32.723Z,98790.97
2022-11-16T07:17:34.456Z,98798.97
2022-11-16T07:18:39.106Z,98798.97
2022-11-16T07:19:40.958Z,98794.09
2022-11-16T07:20:43.640Z,98799.94
2022-11-16T07:21:45.381Z,98797.75
2022-11-16T07:22:48.002Z,98798.88
2022-11-16T07:23:49.752Z,98791.19
2022-11-16T07:24:54.028Z,98796.97
2022-11-16T07:26:00.050Z,98801.13
2022-11-16T07:27:02.779Z,98800.88
2022-11-16T07:28:06.284Z,98800.38
2022-11-16T07:29:08.908Z,98797.66
2022-11-16T07:30:12.697Z,98788.09
2022-11-16T07:31:16.133Z,98792.16
2022-11-16T07:32:17.895Z,98793.59
2022-11-16T07:33:20.603Z,98798.72
2022-11-16T07:34:22.382Z,98808.63
2022-11-16T07:35:25.076Z,98809.47
2022-11-16T07:36:26.856Z,98810.06
2022-11-16T07:37:29.477Z,98803.75
2022-11-16T07:38:31.874Z,98798.47
2022-11-16T07:39:35.095Z,98803.75
2022-11-16T07:40:39.127Z,98807.31
2022-11-16T07:41:42.445Z,98809.22
2022-11-16T07:42:45.854Z,98806.00
2022-11-16T07:43:52.796Z,98803.59
2022-11-16T07:44:54.908Z,98806.09
2022-11-16T07:46:14.055Z,98801.78
2022-11-16T07:47:21.436Z,98809.63
2022-11-16T07:48:23.078Z,98805.72
2022-11-16T07:49:25.752Z,98807.41
2022-11-16T07:50:27.399Z,98816.81
2022-11-16T07:51:30.123Z,98818.50
2022-11-16T07:52:32.947Z,98820.97
2022-11-16T07:53:36.171Z,98814.06
2022-11-16T07:54:37.884Z,98815.81
2022-11-16T07:55:41.991Z,98815.13
2022-11-16T07:56:43.643Z,98817.34
2022-11-16T07:57:51.936Z,98818.75
2022-11-16T07:58:54.995Z,98824.63
2022-11-16T07:59:57.636Z,98824.72
2022-11-16T08:01:05.828Z,98833.06
2022-11-16T08:02:10.512Z,98826.75
2022-11-16T08:03:13.306Z,98829.31
2022-11-16T08:04:17.580Z,98842.31
2022-11-16T08:05:20.291Z,98833.34
2022-11-16T08:06:24.210Z,98834.28
2022-11-16T08:07:26.922Z,98836.03
2022-11-16T08:08:29.795Z,98846.31
2022-11-16T08:09:32.541Z,98844.38
2022-11-16T08:10:34.495Z,98836.47
2022-11-16T08:11:38.676Z,98831.31
2022-11-16T08:12:40.609Z,98836.56
2022-11-16T08:13:43.750Z,98835.59
2022-11-16T08:14:45.446Z,98842.00
2022-11-16T08:15:48.098Z,98842.56
2022-11-16T08:16:50.830Z,98837.66
2022-11-16T08:17:52.842Z,98846.59
2022-11-16T08:18:55.837Z,98849.50
2022-11-16T08:19:58.538Z,98851.34
2022-11-16T08:21:01.723Z,98856.22
2022-11-16T08:22:04.851Z,98853.47
2022-11-16T08:23:06.624Z,98854.84
2022-11-16T08:24:10.359Z,98865.50
2022-11-16T08:25:13.480Z,98867.31
2022-11-16T08:26:17.057Z,98860.75
2022-11-16T08:27:21.173Z,98860.75
2022-11-16T08:28:22.841Z,98863.00
2022-11-16T08:29:26.030Z,98856.50
2022-11-16T08:30:27.678Z,98865.31
2022-11-16T08:31:30.660Z,98868.63
2022-11-16T08:32:32.544Z,98869.47
2022-11-16T08:33:35.170Z,98868.50
2022-11-16T08:34:37.858Z,98869.47
2022-11-16T08:35:39.489Z,98872.44
2022-11-16T08:36:42.117Z,98867.78
2022-11-16T08:37:43.783Z,98872.72
2022-11-16T08:38:46.540Z,98871.88
2022-11-16T08:39:48.188Z,98876.78
2022-11-16T08:40:51.096Z,98874.19
2022-11-16T08:41:53.727Z,98878.03
2022-11-16T08:42:57.136Z,98883.53
2022-11-16T08:44:00.335Z,98878.03
2022-11-16T08:45:02.000Z,98884.59
2022-11-16T08:46:04.695Z,98881.28
2022-11-16T08:47:06.414Z,98885.66
2022-11-16T08:48:09.146Z,98883.66
2022-11-16T08:49:10.816Z,98886.66
2022-11-16T08:50:13.442Z,98887.25
2022-11-16T08:51:19.496Z,98884.38
2022-11-16T08:52:22.833Z,98893.13
2022-11-16T08:53:24.962Z,98882.03
2022-11-16T08:54:29.345Z,98877.28
2022-11-16T08:55:31.111Z,98893.03
2022-11-16T08:56:33.934Z,98905.09
2022-11-16T08:57:35.602Z,98898.28
2022-11-16T08:58:39.698Z,98902.22
2022-11-16T08:59:41.467Z,98901.22
2022-11-16T09:00:44.155Z,98898.22
2022-11-16T09:01:46.882Z,98900.50
2022-11-16T09:02:48.627Z,98895.81
2022-11-16T09:03:51.582Z,98903.59
2022-11-16T09:04:53.330Z,98896.75
2022-11-16T09:05:56.115Z,98900.34
2022-11-16T09:06:58.804Z,98907.53
2022-11-16T09:08:00.486Z,98903.81
2022-11-16T09:09:03.236Z,98902.47
2022-11-16T09:10:05.955Z,98905.81
2022-11-16T09:11:10.471Z,98908.66
2022-11-16T09:12:13.220Z,98907.09
2022-11-16T09:13:15.867Z,98910.66
2022-11-16T09:14:19.935Z,98911.25
2022-11-16T09:15:22.624Z,98909.94
2022-11-16T09:16:24.585Z,98914.09
2022-11-16T09:17:27.389Z,98916.00
2022-11-16T09:18:29.630Z,98912.69
2022-11-16T09:19:32.375Z,98920.44
2022-11-16T09:20:34.051Z,98909.66
2022-11-16T09:21:39.071Z,98921.25
2022-11-16T09:22:40.767Z,98915.16
2022-11-16T09:23:43.420Z,98920.94
2022-11-16T09:24:46.136Z,98918.75
2022-11-16T09:25:48.564Z,98918.75
2022-11-16T09:26:51.303Z,98924.25
2022-11-16T09:27:54.599Z,98922.94
2022-11-16T09:29:01.672Z,98917.53
2022-11-16T09:30:06.040Z,98923.59
2022-11-16T09:31:10.184Z,98920.28
2022-11-16T09:32:12.856Z,98922.28
2022-11-16T09:33:15.500Z,98924.81
2022-11-16T09:34:18.217Z,98919.03
2022-11-16T09:35:21.028Z,98924.53
2022-11-16T09:36:23.719Z,98923.97
2022-11-16T09:37:26.385Z,98922.63
2022-11-16T09:38:40.679Z,98928.38
2022-11-16T09:39:52.493Z,98928.25
2022-11-16T09:40:55.228Z,98924.72
2022-11-16T09:42:04.154Z,98922.06
2022-11-16T09:43:12.293Z,98925.16
2022-11-16T09:44:26.057Z,98923.81
2022-11-16T09:45:32.765Z,98928.69
2022-11-16T09:46:37.383Z,98925.25
2022-11-16T09:47:45.335Z,98932.63
2022-11-16T09:48:48.310Z,98927.53
2022-11-16T09:49:53.562Z,98923.28
2022-11-16T09:51:01.714Z,98922.59
2022-11-16T09:52:07.173Z,98920.25
2022-11-16T09:53:22.004Z,98928.03
2022-11-16T09:54:26.067Z,98924.34
2022-11-16T09:55:34.424Z,98917.75
2022-11-16T09:56:40.368Z,98922.19
2022-11-16T09:57:43.087Z,98917.50
2022-11-16T09:58:51.141Z,98921.06
2022-11-16T09:59:55.987Z,98925.66
2022-11-16T10:01:05.732Z,98924.78
2022-11-16T10:02:19.711Z,98920.13
2022-11-16T10:03:22.675Z,98916.00
2022-11-16T10:04:30.014Z,98916.84
2022-11-16T10:05:38.419Z,98922.34
2022-11-16T10:06:47.507Z,98913.00
2022-11-16T10:07:52.192Z,98924.88
2022-11-16T10:08:56.769Z,98922.09
2022-11-16T10:09:59.905Z,98916.09
2022-11-16T10:11:07.247Z,98918.91
2022-11-16T10:12:16.195Z,98923.44
2022-11-16T10:13:26.700Z,98926.50
2022-11-16T10:14:43.265Z,98934.25
2022-11-16T10:15:53.901Z,98927.13
2022-11-16T10:17:01.993Z,98933.41
2022-11-16T10:18:21.860Z,98925.97
2022-11-16T10:19:30.723Z,98932.66
2022-11-16T10:20:52.050Z,98930.72
2022-11-16T10:22:00.547Z,98935.41
2022-11-16T10:23:06.468Z,98929.66
2022-11-16T10:24:33.476Z,98936.06
2022-11-16T10:25:38.622Z,98932.25
2022-11-16T10:26:46.510Z,98930.88
2022-11-16T10:28:34.271Z,98931.50
2022-11-16T10:29:46.527Z,98934.00
2022-11-16T10:30:53.758Z,98933.19
2022-11-16T10:32:11.171Z,98929.22
2022-11-16T10:33:16.948Z,98932.47
2022-11-16T10:34:23.979Z,98926.66
2022-11-16T10:35:29.613Z,98924.38
2022-11-16T10:36:32.918Z,98923.59
2022-11-16T10:37:37.630Z,98927.06
2022-11-16T10:38:40.658Z,98921.31
2022-11-16T10:39:43.795Z,98919.91
2022-11-16T10:40:47.878Z,98919.00
2022-11-16T10:41:51.485Z,98912.56
2022-11-16T10:43:06.625Z,98909.81
2022-11-16T10:44:13.235Z,98915.56
2022-11-16T10:45:20.629Z,98916.41
2022-11-16T10:46:25.588Z,98913.94
2022-11-16T10:47:36.670Z,98913.84
2022-11-16T10:48:42.869Z,98910.19
2022-11-16T10:49:50.931Z,98911.50
2022-11-16T10:50:54.026Z,98910.41
2022-11-16T10:51:55.855Z,98908.00
2022-11-16T10:52:58.494Z,98915.16
2022-11-16T10:54:01.252Z,98903.63
2022-11-16T10:55:03.233Z,98905.91
2022-11-16T10:56:18.686Z,98910.06
2022-11-16T10:57:23.780Z,98904.91
2022-11-16T10:58:26.515Z,98908.75
2022-11-16T10:59:39.113Z,98908.47
2022-11-16T11:00:45.582Z,98905.47
2022-11-16T11:01:53.199Z,98904.06
2022-11-16T11:02:56.548Z,98900.47
2022-11-16T11:04:21.408Z,98901.31
2022-11-16T11:05:23.370Z,98898.22
2022-11-16T11:06:27.041Z,98900.16
2022-11-16T11:07:30.632Z,98897.06
2022-11-16T11:08:33.615Z,98900.66
2022-11-16T11:09:37.272Z,98893.47
2022-11-16T11:10:40.268Z,98894.91
2022-11-16T11:12:00.249Z,98890.78
2022-11-16T11:13:11.145Z,98892.22
2022-11-16T11:14:16.504Z,98885.94
2022-11-16T11:15:26.162Z,98890.44
2022-11-16T11:16:28.499Z,98885.00
2022-11-16T11:17:32.200Z,98885.88
2022-11-16T11:18:36.243Z,98876.06
2022-11-16T11:19:38.041Z,98884.72
2022-11-16T11:20:44.732Z,98882.03
2022-11-16T11:21:47.536Z,98882.75
2022-11-16T11:22:54.381Z,98876.50
2022-11-16T11:24:10.845Z,98875.56
2022-11-16T11:25:21.612Z,98881.69
2022-11-16T11:26:36.274Z,98875.91
2022-11-16T11:27:39.719Z,98872.69
2022-11-16T11:28:47.213Z,98871.41
2022-11-16T11:29:52.868Z,98880.84
2022-11-16T11:30:58.541Z,98880.09
2022-11-16T11:32:02.551Z,98884.25
2022-11-16T11:33:09.897Z,98878.19
2022-11-16T11:34:18.500Z,98880.41
2022-11-16T11:35:24.996Z,98884.31
2022-11-16T11:36:34.302Z,98882.75
2022-11-16T11:37:38.584Z,98882.88
2022-11-16T11:38:57.278Z,98876.38
2022-11-16T11:40:08.683Z,98874.81
2022-11-16T11:41:19.744Z,98870.41
2022-11-16T11:42:22.995Z,98870.19
2022-11-16T11:43:26.292Z,98868.31
2022-11-16T11:44:32.386Z,98873.34
2022-11-16T11:45:40.059Z,98864.78
2022-11-16T11:47:35.200Z,98877.19
2022-11-16T11:48:22.010Z,98876.34
2022-11-16T11:49:33.410Z,98870.31
2022-11-16T11:50:45.879Z,98867.59
2022-11-16T11:51:51.985Z,98865.63
2022-11-16T11:53:04.332Z,98875.25
2022-11-16T11:54:16.255Z,98862.78
2022-11-16T11:55:18.530Z,98868.50
2022-11-16T11:56:21.794Z,98864.28
2022-11-16T11:57:24.987Z,98865.59
2022-11-16T11:58:31.139Z,98869.69
2022-11-16T11:59:33.987Z,98865.50
2022-11-16T12:00:40.851Z,98869.00
2022-11-16T12:01:56.370Z,98862.94
2022-11-16T12:03:39.910Z,98867.88
2022-11-16T12:05:02.689Z,98863.66
2022-11-16T12:06:10.392Z,98861.13
2022-11-16T12:07:20.430Z,98855.88
2022-11-16T12:08:35.504Z,98847.59
2022-11-16T12:09:43.366Z,98857.53
2022-11-16T12:10:51.007Z,98849.25
2022-11-16T12:12:01.999Z,98843.25
2022-11-16T12:13:28.922Z,98851.25
2022-11-16T12:14:57.765Z,98849.66
2022-11-16T12:16:06.382Z,98849.09
2022-11-16T12:17:13.715Z,98844.13
2022-11-16T12:18:30.943Z,98853.81
2022-11-16T12:20:15.094Z,98853.28
2022-11-16T12:21:23.383Z,98849.19
2022-11-16T12:22:41.452Z,98846.47
2022-11-16T12:24:06.388Z,98846.84
2022-11-16T12:25:18.727Z,98843.88
2022-11-16T12:26:28.242Z,98839.56
2022-11-16T12:27:38.172Z,98847.34
2022-11-16T12:29:00.604Z,98847.34
2022-11-16T12:30:09.498Z,98838.50
2022-11-16T12:31:27.295Z,98844.63
2022-11-16T12:32:53.044Z,98846.84
2022-11-16T12:34:01.044Z,98846.53
2022-11-16T12:35:16.782Z,98838.50
2022-11-16T12:36:29.316Z,98845.13
2022-11-16T12:37:35.865Z,98840.41
2022-11-16T12:38:47.771Z,98834.84
2022-11-16T12:40:01.147Z,98836.19
2022-11-16T12:41:21.416Z,98837.75
2022-11-16T12:42:40.380Z,98837.66
2022-11-16T12:43:47.496Z,98831.53
2022-11-16T12:45:26.405Z,98837.13
2022-11-16T12:46:41.173Z,98832.22
2022-11-16T12:47:57.884Z,98831.09
2022-11-16T12:49:32.284Z,98828.94
2022-11-16T12:50:42.594Z,98819.56
2022-11-16T12:51:59.476Z,98827.63
2022-11-16T12:53:16.257Z,98823.28
2022-11-16T12:55:04.260Z,98821.13
2022-11-16T12:56:15.716Z,98821.75
2022-11-16T12:57:22.027Z,98823.25